Time;durP1;ratioP1;P1;durP2;ratioP2;P2;SDS_P1;SDS_P2;PMS_P1;PMS_P2;Temp;Humidity;BMP_temperature;BMP_pressure;BME280_temperature;BME280_humidity;BME280_pressure;Samples;Min_cycle;Max_cycle;Signal;HPM_P1;HPM_P2
2023/04/10 00:00:08;;;;;;;23.93;14.23;;;9.20;99.90;;;;;;5073813;28;20487;-60
2023/04/10 00:02:38;;;;;;;24.73;13.67;;;9.10;99.90;;;;;;5074393;28;20489;-61
2023/04/10 00:05:07;;;;;;;27.87;13.50;;;9.10;99.90;;;;;;5080713;28;20490;-60
2023/04/10 00:07:34;;;;;;;20.03;12.50;;;9.10;99.90;;;;;;5067422;28;20720;-59
2023/04/10 00:10:00;;;;;;;18.30;11.57;;;9.10;99.90;;;;;;5080987;28;20446;-60
2023/04/10 00:12:30;;;;;;;20.50;12.20;;;9.10;99.90;;;;;;5081010;28;20431;-61
2023/04/10 00:14:58;;;;;;;27.27;14.27;;;9.00;99.90;;;;;;5081654;28;20435;-61
2023/04/10 00:17:25;;;;;;;23.27;13.07;;;9.10;99.90;;;;;;5082325;28;20435;-59
2023/04/10 00:19:52;;;;;;;25.67;13.93;;;9.00;99.90;;;;;;5081195;28;20511;-60
2023/04/10 00:22:18;;;;;;;24.97;11.90;;;9.00;99.90;;;;;;5081035;28;20486;-62
2023/04/10 00:24:45;;;;;;;25.40;14.40;;;9.10;99.90;;;;;;5079640;28;20458;-61
2023/04/10 00:27:12;;;;;;;24.13;14.13;;;9.00;99.90;;;;;;5079955;28;20442;-62
2023/04/10 00:29:39;;;;;;;19.20;11.60;;;9.00;99.90;;;;;;5079756;28;20457;-61
2023/04/10 00:32:07;;;;;;;24.03;12.67;;;8.90;99.90;;;;;;5072700;28;20446;-60
2023/04/10 00:34:34;;;;;;;22.53;11.73;;;8.90;99.90;;;;;;5080187;28;20423;-60
2023/04/10 00:37:01;;;;;;;23.10;12.37;;;8.90;99.90;;;;;;5081106;28;20469;-60
2023/04/10 00:39:28;;;;;;;25.50;14.17;;;8.80;99.90;;;;;;5080805;28;20533;-61
2023/04/10 00:41:56;;;;;;;22.00;10.93;;;8.80;99.90;;;;;;5081014;28;20446;-61
2023/04/10 00:44:23;;;;;;;21.73;12.30;;;8.80;99.90;;;;;;5081663;28;20502;-60
2023/04/10 00:46:50;;;;;;;21.30;12.17;;;8.80;99.90;;;;;;5081343;28;20845;-60
2023/04/10 00:49:18;;;;;;;22.57;13.33;;;8.80;99.90;;;;;;5081460;28;20465;-62
2023/04/10 00:51:46;;;;;;;20.87;12.73;;;8.80;99.90;;;;;;5081664;28;20423;-60
2023/04/10 00:54:13;;;;;;;26.87;12.10;;;8.70;99.90;;;;;;5082333;28;20447;-58
2023/04/10 00:56:43;;;;;;;21.67;13.10;;;8.70;99.90;;;;;;5082168;28;20443;-61
2023/04/10 00:59:12;;;;;;;20.87;12.00;;;8.70;99.90;;;;;;5081426;28;20530;-55
2023/04/10 01:01:39;;;;;;;22.33;11.87;;;8.70;99.90;;;;;;5082214;28;20494;-56
2023/04/10 01:04:07;;;;;;;17.07;11.87;;;8.70;99.90;;;;;;5082262;28;20441;-60
2023/04/10 01:06:51;;;;;;;28.87;12.40;;;8.70;99.90;;;;;;5081667;28;20474;-59
2023/04/10 01:09:30;;;;;;;22.87;11.47;;;8.70;99.90;;;;;;5081556;28;20434;-61
2023/04/10 01:12:07;;;;;;;24.10;12.20;;;8.60;99.90;;;;;;5081588;28;20477;-61
2023/04/10 01:14:42;;;;;;;22.93;12.50;;;8.60;99.90;;;;;;5080391;28;20455;-56
2023/04/10 01:17:16;;;;;;;18.03;9.70;;;8.60;99.90;;;;;;5078814;28;20458;-60
2023/04/10 01:20:01;;;;;;;15.90;9.80;;;8.60;99.90;;;;;;5078101;28;20502;-59
2023/04/10 01:22:35;;;;;;;25.93;11.83;;;8.60;99.90;;;;;;5077184;28;20534;-58
2023/04/10 01:25:27;;;;;;;19.73;10.60;;;8.60;99.90;;;;;;5077379;28;20463;-60
2023/04/10 01:28:07;;;;;;;18.10;10.63;;;8.60;99.90;;;;;;5077399;28;20487;-60
2023/04/10 01:30:38;;;;;;;18.63;10.53;;;8.50;99.90;;;;;;5077023;28;20471;-60
2023/04/10 01:33:09;;;;;;;22.83;10.40;;;8.50;99.90;;;;;;5077047;28;20771;-60
2023/04/10 01:35:38;;;;;;;23.77;11.90;;;8.40;99.90;;;;;;5077454;28;20554;-58
2023/04/10 01:38:06;;;;;;;19.30;10.23;;;8.40;99.90;;;;;;5077742;28;20443;-56
2023/04/10 01:40:41;;;;;;;18.37;11.40;;;8.40;99.90;;;;;;5077910;28;20589;-61
2023/04/10 01:43:12;;;;;;;14.87;9.73;;;8.30;99.90;;;;;;5076945;28;20446;-58
2023/04/10 01:45:42;;;;;;;22.63;12.50;;;8.30;99.90;;;;;;5076451;28;20467;-57
2023/04/10 01:48:09;;;;;;;21.80;11.03;;;8.20;99.90;;;;;;5077124;28;20433;-61
2023/04/10 01:50:36;;;;;;;22.07;12.53;;;8.20;99.90;;;;;;5076832;28;20441;-61
2023/04/10 01:53:10;;;;;;;20.70;10.53;;;8.20;99.90;;;;;;5076675;28;20448;-60
2023/04/10 01:55:37;;;;;;;18.30;9.70;;;8.20;99.90;;;;;;5076212;28;20466;-62
2023/04/10 01:58:04;;;;;;;16.63;10.83;;;8.10;99.90;;;;;;5076518;28;20475;-61
2023/04/10 02:00:38;;;;;;;17.33;10.50;;;8.10;99.90;;;;;;5076592;28;20507;-59
2023/04/10 02:03:07;;;;;;;18.37;10.67;;;8.10;99.90;;;;;;5075936;28;20448;-61
2023/04/10 02:05:48;;;;;;;24.43;13.40;;;8.10;99.90;;;;;;5076565;28;20451;-61
2023/04/10 02:08:22;;;;;;;22.10;10.47;;;8.10;99.90;;;;;;5076522;28;20748;-60
2023/04/10 02:10:56;;;;;;;23.10;11.90;;;8.10;99.90;;;;;;5076738;28;20467;-62
2023/04/10 02:13:26;;;;;;;18.50;10.97;;;8.10;99.90;;;;;;5076160;28;20451;-62
2023/04/10 02:15:55;;;;;;;18.37;11.30;;;8.00;99.90;;;;;;5076675;28;20427;-60
2023/04/10 02:18:29;;;;;;;18.60;10.60;;;8.00;99.90;;;;;;5075883;28;20446;-61
2023/04/10 02:21:01;;;;;;;22.40;11.07;;;8.00;99.90;;;;;;5076208;28;20502;-59
2023/04/10 02:23:30;;;;;;;16.77;10.93;;;8.00;99.90;;;;;;5076872;28;20439;-62
2023/04/10 02:26:06;;;;;;;16.30;11.13;;;7.90;99.90;;;;;;5076185;28;20470;-61
2023/04/10 02:28:37;;;;;;;25.07;12.70;;;7.90;99.90;;;;;;5077024;28;20443;-61
2023/04/10 02:31:10;;;;;;;17.77;11.80;;;7.80;99.90;;;;;;5076850;28;20475;-60
2023/04/10 02:33:38;;;;;;;20.50;11.90;;;7.80;99.90;;;;;;5077400;28;20451;-61
2023/04/10 02:36:06;;;;;;;23.37;12.47;;;7.90;99.90;;;;;;5077671;28;20509;-60
2023/04/10 02:38:34;;;;;;;22.80;11.23;;;7.80;99.90;;;;;;5078210;28;20459;-60
2023/04/10 02:41:02;;;;;;;23.70;13.63;;;7.90;99.90;;;;;;5075914;28;20490;-55
2023/04/10 02:43:31;;;;;;;22.00;12.40;;;7.90;99.90;;;;;;5076769;28;20482;-58
2023/04/10 02:45:58;;;;;;;22.30;13.73;;;7.90;99.90;;;;;;5076737;28;20451;-63
2023/04/10 02:48:25;;;;;;;25.50;14.33;;;7.90;99.90;;;;;;5076993;28;20467;-60
2023/04/10 02:50:57;;;;;;;25.03;13.53;;;7.80;99.90;;;;;;5076380;28;20439;-60
2023/04/10 02:53:29;;;;;;;21.50;13.10;;;7.80;99.90;;;;;;5075236;28;20470;-61
2023/04/10 02:56:02;;;;;;;22.50;13.70;;;7.80;99.90;;;;;;5075936;28;20483;-61
2023/04/10 02:58:29;;;;;;;21.03;11.87;;;7.80;99.90;;;;;;5075694;28;20463;-60
2023/04/10 03:00:56;;;;;;;19.50;13.97;;;7.80;99.90;;;;;;5075151;28;20475;-60
2023/04/10 03:03:23;;;;;;;25.03;13.97;;;7.70;99.90;;;;;;5075651;28;20463;-62
2023/04/10 03:05:50;;;;;;;22.23;13.60;;;7.70;99.90;;;;;;5075516;28;20445;-61
2023/04/10 03:08:22;;;;;;;18.27;13.47;;;7.60;99.90;;;;;;5075282;28;20498;-60
2023/04/10 03:10:51;;;;;;;25.53;13.50;;;7.60;99.90;;;;;;5075759;28;20462;-61
2023/04/10 03:13:17;;;;;;;30.37;15.20;;;7.60;99.90;;;;;;5075135;28;20466;-58
2023/04/10 03:15:44;;;;;;;30.20;13.90;;;7.50;99.90;;;;;;5075828;28;20427;-61
2023/04/10 03:18:13;;;;;;;23.87;13.90;;;7.60;99.90;;;;;;5075863;28;20431;-60
2023/04/10 03:20:42;;;;;;;25.53;14.27;;;7.50;99.90;;;;;;5075932;28;20482;-57
2023/04/10 03:23:13;;;;;;;26.60;14.80;;;7.60;99.90;;;;;;5076323;28;20443;-60
2023/04/10 03:25:43;;;;;;;29.80;14.70;;;7.60;99.90;;;;;;5077043;28;20435;-54
2023/04/10 03:28:10;;;;;;;27.87;16.33;;;7.60;99.90;;;;;;5076486;28;20452;-56
2023/04/10 03:30:39;;;;;;;33.53;15.17;;;7.60;99.90;;;;;;5076916;28;20456;-57
2023/04/10 03:33:07;;;;;;;20.50;13.47;;;7.60;99.90;;;;;;5076790;28;20447;-55
2023/04/10 03:35:34;;;;;;;28.70;14.50;;;7.60;99.90;;;;;;5076959;28;20432;-56
2023/04/10 03:38:01;;;;;;;33.20;17.17;;;7.60;99.90;;;;;;5076154;28;20434;-58
2023/04/10 03:40:28;;;;;;;31.23;16.53;;;7.60;99.90;;;;;;5075648;28;20490;-61
2023/04/10 03:42:56;;;;;;;33.60;16.20;;;7.70;99.90;;;;;;5075380;28;20458;-60
2023/04/10 03:45:25;;;;;;;34.20;15.17;;;7.70;99.90;;;;;;5075320;28;20443;-60
2023/04/10 03:47:52;;;;;;;28.00;17.70;;;7.70;99.90;;;;;;5075478;28;20427;-60
2023/04/10 03:50:20;;;;;;;32.23;16.30;;;7.70;99.90;;;;;;5075314;28;20459;-61
2023/04/10 03:52:48;;;;;;;28.90;17.20;;;7.70;99.90;;;;;;5074574;28;20428;-63
2023/04/10 03:55:17;;;;;;;30.60;16.33;;;7.60;99.90;;;;;;5074955;28;20535;-57
2023/04/10 03:57:44;;;;;;;28.00;16.60;;;7.60;99.90;;;;;;5074741;28;20451;-63
2023/04/10 04:00:15;;;;;;;28.47;17.47;;;7.60;99.90;;;;;;5074721;28;20535;-59
2023/04/10 04:02:42;;;;;;;31.17;17.57;;;7.50;99.90;;;;;;5075422;28;20466;-60
2023/04/10 04:05:10;;;;;;;27.50;15.37;;;7.50;99.90;;;;;;5074858;28;20497;-62
2023/04/10 04:07:38;;;;;;;29.80;16.40;;;7.50;99.90;;;;;;5074954;28;20440;-60
2023/04/10 04:10:05;;;;;;;28.63;17.00;;;7.50;99.90;;;;;;5074575;28;20489;-59
2023/04/10 04:12:32;;;;;;;27.50;16.43;;;7.50;99.90;;;;;;5074976;28;20458;-59
2023/04/10 04:15:02;;;;;;;36.33;17.07;;;7.50;99.90;;;;;;5075256;28;20487;-60
2023/04/10 04:17:31;;;;;;;25.03;16.43;;;7.50;99.90;;;;;;5075070;28;20444;-60
2023/04/10 04:19:58;;;;;;;31.33;16.90;;;7.50;99.90;;;;;;5074749;28;20605;-58
2023/04/10 04:22:24;;;;;;;28.17;17.20;;;7.40;99.90;;;;;;5075032;28;20435;-61
2023/04/10 04:24:53;;;;;;;29.87;17.00;;;7.40;99.90;;;;;;5075139;28;20463;-58
2023/04/10 04:27:22;;;;;;;28.40;17.70;;;7.40;99.90;;;;;;5075143;28;20440;-61
2023/04/10 04:29:52;;;;;;;27.30;18.30;;;7.40;99.90;;;;;;5074979;28;20562;-61
2023/04/10 04:32:19;;;;;;;30.33;17.70;;;7.40;99.90;;;;;;5074586;28;20466;-64
2023/04/10 04:34:48;;;;;;;23.10;14.73;;;7.40;99.90;;;;;;5073642;28;20478;-60
2023/04/10 04:37:14;;;;;;;31.10;17.30;;;7.40;99.90;;;;;;5074095;28;20448;-62
2023/04/10 04:39:41;;;;;;;31.23;17.60;;;7.30;99.90;;;;;;5074403;28;20503;-61
2023/04/10 04:42:08;;;;;;;27.20;18.00;;;7.30;99.90;;;;;;5074293;28;20518;-60
2023/04/10 04:44:35;;;;;;;34.10;17.37;;;7.30;99.90;;;;;;5073771;28;20450;-60
2023/04/10 04:47:02;;;;;;;32.20;17.37;;;7.30;99.90;;;;;;5073563;28;20505;-61
2023/04/10 04:49:29;;;;;;;29.80;16.27;;;7.30;99.90;;;;;;5073854;28;20473;-62
2023/04/10 04:51:57;;;;;;;35.43;16.90;;;7.30;99.90;;;;;;5078082;28;20446;-60
2023/04/10 04:54:24;;;;;;;31.50;18.47;;;7.30;99.90;;;;;;5077832;28;20512;-61
2023/04/10 04:56:51;;;;;;;29.23;15.67;;;7.30;99.90;;;;;;5077942;28;20451;-62
2023/04/10 04:59:18;;;;;;;23.03;16.00;;;7.30;99.90;;;;;;5078085;28;20478;-61
2023/04/10 05:01:46;;;;;;;25.73;17.23;;;7.20;99.90;;;;;;5077633;28;20508;-62
2023/04/10 05:04:13;;;;;;;35.13;15.87;;;7.20;99.90;;;;;;5078419;28;20442;-60
2023/04/10 05:06:40;;;;;;;30.33;17.67;;;7.20;99.90;;;;;;5078134;28;20454;-62
2023/04/10 05:09:09;;;;;;;28.57;16.33;;;7.20;99.90;;;;;;5078214;28;20443;-60
2023/04/10 05:11:37;;;;;;;30.37;15.97;;;7.20;99.90;;;;;;5077804;28;20827;-60
2023/04/10 05:14:04;;;;;;;31.40;16.17;;;7.20;99.90;;;;;;5078157;28;20469;-58
2023/04/10 05:16:31;;;;;;;30.23;15.73;;;7.10;99.90;;;;;;5077508;28;20466;-60
2023/04/10 05:19:04;;;;;;;30.87;19.40;;;7.20;99.90;;;;;;5077681;28;20471;-61
2023/04/10 05:21:36;;;;;;;23.70;14.50;;;7.20;99.90;;;;;;5077758;28;20533;-60
2023/04/10 05:24:03;;;;;;;23.17;15.40;;;7.20;99.90;;;;;;5077461;28;20443;-61
2023/04/10 05:26:31;;;;;;;28.67;14.73;;;7.20;99.90;;;;;;5077306;28;20463;-61
2023/04/10 05:28:58;;;;;;;25.20;16.17;;;7.30;99.90;;;;;;5077015;28;20443;-61
2023/04/10 05:31:25;;;;;;;36.43;15.23;;;7.40;99.90;;;;;;5076740;28;20455;-62
2023/04/10 05:33:52;;;;;;;27.57;14.47;;;7.40;99.90;;;;;;5077416;28;20471;-60
2023/04/10 05:36:19;;;;;;;29.67;14.80;;;7.50;99.90;;;;;;5077251;28;20447;-61
2023/04/10 05:38:46;;;;;;;22.63;13.40;;;7.50;99.90;;;;;;5077776;28;20434;-61
2023/04/10 05:41:15;;;;;;;22.73;14.67;;;7.60;99.90;;;;;;5077034;28;20480;-61
2023/04/10 05:43:43;;;;;;;31.33;15.17;;;7.60;99.90;;;;;;5077984;28;20454;-61
2023/04/10 05:46:11;;;;;;;29.50;14.57;;;7.70;99.90;;;;;;5077585;28;20451;-61
2023/04/10 05:48:38;;;;;;;25.53;13.50;;;7.70;99.90;;;;;;5077278;28;20448;-60
2023/04/10 05:51:06;;;;;;;20.90;13.33;;;7.80;99.90;;;;;;5077271;28;20451;-58
2023/04/10 05:53:33;;;;;;;21.87;11.57;;;7.90;99.90;;;;;;5076817;28;20475;-59
2023/04/10 05:56:00;;;;;;;18.30;12.50;;;7.90;99.90;;;;;;5077701;28;20455;-61
2023/04/10 05:58:30;;;;;;;16.20;12.33;;;8.00;99.90;;;;;;5076941;28;20451;-61
2023/04/10 06:00:59;;;;;;;22.27;12.73;;;8.00;99.90;;;;;;5076522;28;20530;-61
2023/04/10 06:03:28;;;;;;;22.53;12.77;;;8.00;99.90;;;;;;5076933;28;20414;-60
2023/04/10 06:05:56;;;;;;;17.97;12.07;;;8.10;99.90;;;;;;5076618;28;20478;-61
2023/04/10 06:08:23;;;;;;;20.30;11.70;;;8.20;99.90;;;;;;5076624;28;20438;-61
2023/04/10 06:10:49;;;;;;;21.23;12.03;;;8.20;99.90;;;;;;5076381;28;20463;-61
2023/04/10 06:13:16;;;;;;;21.17;13.17;;;8.40;99.90;;;;;;5076878;28;20431;-62
2023/04/10 06:15:43;;;;;;;20.40;12.07;;;8.50;99.90;;;;;;5077033;28;20450;-58
2023/04/10 06:18:11;;;;;;;20.23;10.93;;;8.50;99.90;;;;;;5076279;28;20443;-61
2023/04/10 06:20:38;;;;;;;23.10;12.50;;;8.70;99.90;;;;;;5076738;28;20518;-61
2023/04/10 06:23:05;;;;;;;19.70;11.97;;;8.80;99.90;;;;;;5077100;28;20447;-60
2023/04/10 06:25:32;;;;;;;21.63;12.90;;;9.00;99.90;;;;;;5077458;28;20499;-62
2023/04/10 06:28:01;;;;;;;20.87;13.00;;;9.20;99.90;;;;;;5077276;28;20432;-62
2023/04/10 06:30:33;;;;;;;22.50;12.20;;;9.30;99.90;;;;;;5076920;28;20450;-59
2023/04/10 06:33:05;;;;;;;19.80;12.63;;;9.40;99.90;;;;;;5077518;28;20477;-60
2023/04/10 06:35:36;;;;;;;22.13;11.47;;;9.60;99.90;;;;;;5077273;28;20423;-61
2023/04/10 06:38:11;;;;;;;18.43;11.03;;;9.80;99.90;;;;;;5077361;28;20458;-61
2023/04/10 06:40:38;;;;;;;21.87;11.67;;;10.00;99.90;;;;;;5077534;28;20422;-59
2023/04/10 06:43:05;;;;;;;30.40;14.73;;;10.10;99.90;;;;;;5076789;28;20435;-61
2023/04/10 06:45:32;;;;;;;23.30;14.07;;;10.10;99.90;;;;;;5076699;28;20439;-62
2023/04/10 06:47:59;;;;;;;20.17;13.90;;;10.20;99.90;;;;;;5077506;28;20447;-58
2023/04/10 06:50:25;;;;;;;20.53;14.50;;;10.40;99.90;;;;;;5076619;28;20467;-60
2023/04/10 06:52:58;;;;;;;28.47;14.87;;;10.50;99.90;;;;;;5076887;28;20466;-59
2023/04/10 06:55:25;;;;;;;22.67;14.37;;;10.70;99.90;;;;;;5076448;28;20436;-62
2023/04/10 06:57:56;;;;;;;29.10;15.33;;;10.70;99.90;;;;;;5076652;28;20485;-61
2023/04/10 07:00:23;;;;;;;31.00;17.87;;;10.80;99.90;;;;;;5076811;28;20431;-60
2023/04/10 07:02:52;;;;;;;31.53;18.40;;;10.90;99.90;;;;;;5077081;28;20509;-69
2023/04/10 07:05:19;;;;;;;26.30;17.60;;;11.00;99.90;;;;;;5077021;28;20416;-57
2023/04/10 07:07:49;;;;;;;28.73;17.33;;;11.00;99.90;;;;;;5077237;28;20467;-57
2023/04/10 07:10:18;;;;;;;26.93;16.67;;;11.10;99.90;;;;;;5077665;28;20446;-60
2023/04/10 07:12:46;;;;;;;32.13;18.50;;;11.20;99.90;;;;;;5076375;28;20467;-62
2023/04/10 07:15:16;;;;;;;32.53;16.50;;;11.30;99.90;;;;;;5076743;28;20431;-59
2023/04/10 07:17:43;;;;;;;31.90;18.87;;;11.30;99.90;;;;;;5076232;28;20467;-62
2023/04/10 07:20:11;;;;;;;28.43;16.90;;;11.40;99.90;;;;;;5076051;28;20486;-62
2023/04/10 07:22:38;;;;;;;33.47;18.63;;;11.40;99.90;;;;;;5076042;28;20502;-61
2023/04/10 07:25:06;;;;;;;29.87;18.73;;;11.40;99.90;;;;;;5076022;28;20461;-60
2023/04/10 07:27:34;;;;;;;32.13;17.53;;;11.50;99.90;;;;;;5076458;28;20498;-58
2023/04/10 07:30:01;;;;;;;28.60;19.00;;;11.50;99.90;;;;;;5076108;28;20482;-59
2023/04/10 07:32:28;;;;;;;35.13;17.30;;;11.50;99.90;;;;;;5076025;28;20466;-62
2023/04/10 07:34:55;;;;;;;29.17;18.23;;;11.60;99.90;;;;;;5075819;28;20447;-59
2023/04/10 07:37:22;;;;;;;32.03;19.07;;;11.60;99.90;;;;;;5075255;28;20466;-61
2023/04/10 07:39:49;;;;;;;29.50;17.33;;;11.60;99.90;;;;;;5075352;28;20439;-58
2023/04/10 07:42:16;;;;;;;37.50;18.00;;;11.70;99.90;;;;;;5075242;28;20487;-59
2023/04/10 07:44:44;;;;;;;33.60;20.30;;;11.80;99.90;;;;;;5075240;28;20469;-60
2023/04/10 07:47:13;;;;;;;33.07;18.27;;;11.90;99.90;;;;;;5075758;28;20475;-59
2023/04/10 07:49:40;;;;;;;36.57;19.73;;;12.00;99.90;;;;;;5075637;28;20478;-62
2023/04/10 07:52:07;;;;;;;31.13;18.20;;;12.00;99.90;;;;;;5075816;28;20442;-61
2023/04/10 07:54:34;;;;;;;31.30;17.83;;;12.20;99.90;;;;;;5074683;28;20439;-60
2023/04/10 07:57:01;;;;;;;29.40;18.87;;;12.20;99.90;;;;;;5074708;28;20455;-60
2023/04/10 07:59:28;;;;;;;34.53;17.60;;;12.30;99.90;;;;;;5074766;28;20488;-56
2023/04/10 08:01:57;;;;;;;34.13;17.30;;;12.40;99.90;;;;;;5074460;28;20482;-62
2023/04/10 08:04:25;;;;;;;38.20;18.67;;;12.60;99.90;;;;;;5075093;28;20478;-62
2023/04/10 08:06:52;;;;;;;35.60;18.80;;;12.80;99.90;;;;;;5075783;28;20454;-58
2023/04/10 08:09:19;;;;;;;27.13;15.53;;;13.20;99.90;;;;;;5074882;28;20447;-60
2023/04/10 08:11:46;;;;;;;26.67;15.80;;;14.50;99.90;;;;;;5073542;28;20439;-62
2023/04/10 08:14:13;;;;;;;23.50;16.00;;;16.60;99.90;;;;;;5074907;28;20486;-59
2023/04/10 08:16:40;;;;;;;24.90;16.00;;;17.90;99.90;;;;;;5074801;28;20435;-62
2023/04/10 08:19:09;;;;;;;25.20;16.20;;;19.30;99.90;;;;;;5074863;28;20447;-60
2023/04/10 08:21:35;;;;;;;23.97;15.93;;;20.90;99.90;;;;;;5075690;28;20466;-58
2023/04/10 08:24:04;;;;;;;20.07;14.73;;;22.10;99.40;;;;;;5074838;28;20483;-62
2023/04/10 08:26:31;;;;;;;27.60;17.07;;;23.00;93.90;;;;;;5078101;28;20426;-60
2023/04/10 08:29:00;;;;;;;28.50;19.90;;;23.70;90.20;;;;;;5078332;28;20467;-61
2023/04/10 08:31:28;;;;;;;24.10;18.27;;;24.10;85.40;;;;;;5074883;28;20455;-62
2023/04/10 08:33:55;;;;;;;26.17;18.60;;;24.70;79.70;;;;;;5079324;28;20466;-62
2023/04/10 08:36:25;;;;;;;21.97;16.93;;;24.90;76.80;;;;;;5077961;28;20442;-62
2023/04/10 08:38:52;;;;;;;27.30;17.47;;;25.30;73.10;;;;;;5075751;28;20502;-62
2023/04/10 08:41:19;;;;;;;23.13;16.70;;;25.40;70.10;;;;;;5076072;28;20490;-63
2023/04/10 08:43:48;;;;;;;21.53;17.27;;;25.40;69.20;;;;;;5076858;28;20458;-61
2023/04/10 08:46:15;;;;;;;25.17;17.00;;;25.40;68.40;;;;;;5078802;28;20466;-62
2023/04/10 08:48:47;;;;;;;26.00;16.07;;;25.30;68.80;;;;;;5078181;28;20451;-62
2023/04/10 08:51:17;;;;;;;22.77;15.77;;;25.20;68.30;;;;;;5075918;28;20537;-59
2023/04/10 08:53:46;;;;;;;22.50;15.73;;;25.00;68.40;;;;;;5077415;28;20479;-59
2023/04/10 08:56:16;;;;;;;20.00;14.70;;;25.10;67.50;;;;;;5077774;28;20444;-53
2023/04/10 08:58:43;;;;;;;21.37;13.73;;;25.10;66.70;;;;;;5079140;28;20455;-60
2023/04/10 09:01:11;;;;;;;19.37;14.40;;;25.40;66.00;;;;;;5077386;28;20507;-54
2023/04/10 09:03:38;;;;;;;17.30;13.00;;;25.60;64.50;;;;;;5077591;28;20467;-61
2023/04/10 09:06:06;;;;;;;16.63;11.40;;;25.60;63.20;;;;;;5077413;28;20423;-61
2023/04/10 09:08:34;;;;;;;18.87;12.07;;;25.90;61.10;;;;;;5076785;28;20450;-61
2023/04/10 09:11:02;;;;;;;15.80;10.80;;;25.90;60.80;;;;;;5079087;28;20423;-59
2023/04/10 09:13:40;;;;;;;16.93;10.00;;;25.60;60.20;;;;;;5079063;28;20423;-57
2023/04/10 09:16:08;;;;;;;16.67;12.00;;;25.80;58.50;;;;;;5074851;28;20512;-63
2023/04/10 09:18:47;;;;;;;16.73;10.90;;;25.70;59.30;;;;;;5074982;28;20888;-62
2023/04/10 09:21:18;;;;;;;17.80;12.20;;;25.50;59.10;;;;;;5075781;28;20470;-63
2023/04/10 09:23:46;;;;;;;18.57;11.80;;;25.40;59.20;;;;;;5078550;28;20478;-61
2023/04/10 09:26:28;;;;;;;12.40;10.30;;;25.40;59.10;;;;;;5077970;28;20416;-62
2023/04/10 09:29:00;;;;;;;16.03;11.27;;;25.40;57.20;;;;;;5076354;28;20474;-63
2023/04/10 09:31:30;;;;;;;20.20;11.13;;;25.40;57.10;;;;;;5076661;28;20439;-58
2023/04/10 09:34:11;;;;;;;15.07;11.30;;;25.40;57.70;;;;;;5076499;28;20481;-60
2023/04/10 09:36:40;;;;;;;14.97;10.10;;;25.30;58.50;;;;;;5077115;28;20423;-61
2023/04/10 09:39:07;;;;;;;11.87;9.73;;;25.30;57.80;;;;;;5076318;28;20471;-62
2023/04/10 09:41:46;;;;;;;14.97;11.27;;;24.90;58.10;;;;;;5076379;28;20424;-63
2023/04/10 09:44:13;;;;;;;19.03;11.30;;;25.10;59.00;;;;;;5076567;28;20541;-60
2023/04/10 09:46:42;;;;;;;14.00;10.47;;;24.90;59.20;;;;;;5075408;28;20474;-61
2023/04/10 09:49:09;;;;;;;13.73;11.00;;;25.00;59.20;;;;;;5077533;28;20455;-61
2023/04/10 09:51:38;;;;;;;16.90;11.00;;;24.90;59.00;;;;;;5076107;28;20439;-61
2023/04/10 09:54:05;;;;;;;13.47;9.83;;;24.90;59.00;;;;;;5076009;28;20450;-60
2023/04/10 09:56:38;;;;;;;17.97;11.47;;;24.80;59.90;;;;;;5076152;28;20436;-62
2023/04/10 09:59:07;;;;;;;20.47;13.00;;;24.90;59.60;;;;;;5076488;28;20443;-60
2023/04/10 10:01:35;;;;;;;19.17;11.17;;;25.10;59.50;;;;;;5076092;28;20468;-64
2023/04/10 10:04:03;;;;;;;13.30;10.27;;;25.40;59.10;;;;;;5075633;28;20451;-62
2023/04/10 10:06:32;;;;;;;14.13;10.13;;;25.60;58.10;;;;;;5075794;28;20434;-62
2023/04/10 10:09:03;;;;;;;13.00;11.50;;;25.90;57.60;;;;;;5075514;28;20431;-62
2023/04/10 10:11:36;;;;;;;17.53;9.10;;;26.20;57.10;;;;;;5073074;28;20422;-62
2023/04/10 10:14:09;;;;;;;16.17;10.00;;;26.30;56.70;;;;;;5076865;28;20424;-62
2023/04/10 10:16:43;;;;;;;15.23;8.87;;;26.20;56.10;;;;;;5074826;28;20459;-63
2023/04/10 10:19:19;;;;;;;14.40;8.73;;;25.90;57.40;;;;;;5075658;28;20454;-59
2023/04/10 10:21:46;;;;;;;12.50;8.70;;;25.70;57.60;;;;;;5075583;28;20446;-62
2023/04/10 10:24:15;;;;;;;12.37;8.23;;;25.60;57.50;;;;;;5074841;28;20439;-62
2023/04/10 10:26:44;;;;;;;14.03;10.13;;;25.50;58.20;;;;;;5076619;28;20428;-58
2023/04/10 10:29:16;;;;;;;12.70;9.93;;;25.30;57.80;;;;;;5075505;28;20463;-62
2023/04/10 10:31:43;;;;;;;15.87;11.07;;;25.20;58.80;;;;;;5076267;28;20428;-60
2023/04/10 10:34:10;;;;;;;13.03;9.23;;;25.20;58.90;;;;;;5074866;28;20447;-62
2023/04/10 10:36:39;;;;;;;11.40;9.37;;;24.90;59.10;;;;;;5074959;28;20461;-62
2023/04/10 10:39:28;;;;;;;11.33;8.50;;;24.80;59.10;;;;;;5075677;28;20435;-61
2023/04/10 10:42:02;;;;;;;9.17;7.63;;;24.70;59.70;;;;;;5074699;28;20468;-62
2023/04/10 10:44:40;;;;;;;10.83;8.57;;;24.50;59.00;;;;;;5075700;28;20419;-62
2023/04/10 10:47:15;;;;;;;11.80;8.73;;;24.60;58.80;;;;;;5074248;28;20428;-62
2023/04/10 10:49:53;;;;;;;13.50;8.20;;;24.30;59.90;;;;;;5075602;28;20506;-62
2023/04/10 10:52:44;;;;;;;14.17;8.37;;;24.00;60.50;;;;;;5075472;28;20752;-61
2023/04/10 10:55:31;;;;;;;11.37;7.80;;;23.70;60.00;;;;;;5074648;28;20493;-61
2023/04/10 10:58:00;;;;;;;14.10;7.50;;;23.40;61.30;;;;;;5073097;28;20446;-62
2023/04/10 11:01:12;;;;;;;9.30;7.87;;;23.00;61.60;;;;;;5073790;28;20486;-62
2023/04/10 11:03:39;;;;;;;9.00;6.63;;;22.50;63.10;;;;;;5075865;28;20505;-63
2023/04/10 11:06:08;;;;;;;7.60;6.40;;;21.60;65.40;;;;;;5076030;28;20463;-62
2023/04/10 11:08:39;;;;;;;13.00;7.43;;;21.30;65.70;;;;;;5075280;28;20439;-64
2023/04/10 11:11:07;;;;;;;12.97;6.57;;;21.00;66.50;;;;;;5075128;28;20500;-60
2023/04/10 11:13:35;;;;;;;12.83;7.17;;;20.80;67.70;;;;;;5074452;28;20458;-63
2023/04/10 11:16:05;;;;;;;12.43;7.93;;;20.80;68.50;;;;;;5076362;28;20498;-61
2023/04/10 11:19:03;;;;;;;15.60;8.60;;;20.80;69.60;;;;;;5075781;28;20793;-62
2023/04/10 11:21:31;;;;;;;11.50;7.63;;;20.80;70.50;;;;;;5075203;28;20466;-62
2023/04/10 11:24:05;;;;;;;8.90;7.17;;;20.80;70.60;;;;;;5074635;28;20475;-62
2023/04/10 11:26:38;;;;;;;13.53;8.07;;;20.80;70.70;;;;;;5075249;28;20467;-61
2023/04/10 11:29:06;;;;;;;15.00;8.00;;;20.80;70.40;;;;;;5075524;28;20490;-61
2023/04/10 11:31:36;;;;;;;9.63;7.27;;;20.60;72.70;;;;;;5074503;28;20538;-62
2023/04/10 11:34:04;;;;;;;18.00;9.60;;;20.40;72.60;;;;;;5075208;28;20470;-61
2023/04/10 11:36:32;;;;;;;9.20;6.90;;;20.30;73.00;;;;;;5074046;28;20509;-61
2023/04/10 11:39:01;;;;;;;12.30;7.83;;;20.10;72.50;;;;;;5074902;28;20423;-62
2023/04/10 11:41:32;;;;;;;11.93;7.93;;;20.00;74.30;;;;;;5075243;28;20465;-61
2023/04/10 11:44:02;;;;;;;11.13;8.90;;;19.90;75.40;;;;;;5074964;28;20467;-62
2023/04/10 11:46:29;;;;;;;12.80;8.97;;;19.80;75.20;;;;;;5074938;28;20463;-61
2023/04/10 11:48:59;;;;;;;13.20;9.33;;;19.80;76.00;;;;;;5075051;28;20439;-61
2023/04/10 11:51:30;;;;;;;18.00;9.93;;;19.60;75.70;;;;;;5071407;28;20501;-61
2023/04/10 11:54:08;;;;;;;13.90;8.37;;;19.50;77.40;;;;;;5075517;28;20443;-61
2023/04/10 11:56:36;;;;;;;9.67;7.80;;;19.40;78.50;;;;;;5075213;28;20478;-61
2023/04/10 11:59:06;;;;;;;13.00;8.23;;;19.40;76.80;;;;;;5073908;28;20432;-61
2023/04/10 12:01:34;;;;;;;13.73;8.10;;;19.30;75.90;;;;;;5075114;28;20475;-62
2023/04/10 12:04:05;;;;;;;11.10;7.50;;;19.30;76.50;;;;;;5074158;28;20478;-62
2023/04/10 12:06:32;;;;;;;9.50;7.23;;;19.20;75.50;;;;;;5074757;28;20527;-64
2023/04/10 12:08:59;;;;;;;13.20;8.43;;;19.00;75.40;;;;;;5074703;28;20478;-62
2023/04/10 12:11:27;;;;;;;9.70;7.40;;;19.00;76.40;;;;;;5074571;28;20474;-63
2023/04/10 12:13:55;;;;;;;12.60;7.20;;;18.80;77.40;;;;;;5074370;28;20439;-60
2023/04/10 12:16:23;;;;;;;10.67;7.00;;;18.90;78.30;;;;;;5073799;28;20516;-62
2023/04/10 12:18:51;;;;;;;13.60;7.80;;;18.70;73.70;;;;;;5074350;28;20436;-62
2023/04/10 12:21:20;;;;;;;9.67;5.97;;;18.60;74.30;;;;;;5074955;28;20454;-60
2023/04/10 12:23:47;;;;;;;11.17;6.00;;;18.60;76.10;;;;;;5072815;28;20479;-61
2023/04/10 12:26:15;;;;;;;8.77;5.90;;;18.60;75.20;;;;;;5073968;28;20443;-61
2023/04/10 12:28:51;;;;;;;6.57;5.00;;;18.60;75.50;;;;;;5074662;28;20514;-58
2023/04/10 12:31:18;;;;;;;7.10;4.83;;;18.70;69.50;;;;;;5074116;28;20485;-61
2023/04/10 12:33:48;;;;;;;7.03;5.57;;;18.80;69.90;;;;;;5074850;28;20428;-62
2023/04/10 12:36:25;;;;;;;5.47;4.70;;;18.90;70.40;;;;;;5074132;28;20453;-61
2023/04/10 12:38:52;;;;;;;7.10;5.17;;;19.00;70.90;;;;;;5074388;28;20446;-62
2023/04/10 12:41:23;;;;;;;10.73;6.70;;;19.10;72.70;;;;;;5071481;28;20486;-63
2023/04/10 12:43:51;;;;;;;7.63;5.20;;;19.10;73.40;;;;;;5074190;28;20471;-61
2023/04/10 12:46:27;;;;;;;9.47;6.87;;;19.20;73.50;;;;;;5075065;28;20435;-59